SBJU/JDO METAR and TAF weather

Enter ICAO airport designator
Station Type Date Time Source
SBJU METAR 2020/04/01 22:00 UTC NOAA

SBJU 012200Z 00000KT 9999 FEW020 28/23 Q1015


Station Type Date Time Source
SBJU Decoded METAR 2020/04/01 22:00 UTC NOAA

Station name not available
Apr 01, 2020 - 06:00 PM EDT / 2020.04.01 2200 UTC
Wind: Calm:0
Visibility: greater than 7 mile(s):0
Sky conditions: mostly clear
Temperature: 82 F (28 C)
Dew Point: 73 F (23 C)
Relative Humidity: 74%
Pressure (altimeter): 29.97 in. Hg (1015 hPa)
ob: SBJU 012200Z 00000KT 9999 FEW020 28/23 Q1015
cycle: 22

Station Type Date Time Source
SBJU TAF 2011/11/01 00:05 UTC NOAA

TAF SBJU 012200Z 0200/0212 00000KT 9999 SCT020 TX28/0200Z TN24/0207Z
BECMG 0210/0212 06005KT
RMK PCE

Example: see airport list